createdAt,value
2018-01-20T00:02:25.242Z,2.40
2018-01-20T00:04:53.415Z,2.40
2018-01-20T00:07:21.467Z,2.40
2018-01-20T00:10:07.682Z,2.40
2018-01-20T00:12:36.634Z,2.40
2018-01-20T00:15:04.684Z,2.40
2018-01-20T00:17:33.514Z,2.40
2018-01-20T00:20:01.569Z,2.40
2018-01-20T00:22:29.625Z,2.50
2018-01-20T00:25:03.418Z,2.40
2018-01-20T00:27:37.193Z,2.40
2018-01-20T00:30:05.254Z,2.40
2018-01-20T00:32:33.310Z,2.40
2018-01-20T00:35:02.138Z,2.40
2018-01-20T00:37:31.293Z,2.40
2018-01-20T00:40:00.126Z,2.30
2018-01-20T00:42:28.491Z,2.40
2018-01-20T00:44:56.676Z,2.50
2018-01-20T00:47:24.773Z,2.40
2018-01-20T00:49:52.854Z,2.40
2018-01-20T00:52:20.942Z,2.30
2018-01-20T00:54:49.002Z,2.40
2018-01-20T00:57:17.394Z,2.40
2018-01-20T00:59:45.453Z,2.40
2018-01-20T01:02:13.541Z,2.40
2018-01-20T01:04:41.622Z,2.40
2018-01-20T01:07:09.694Z,2.50
2018-01-20T01:09:37.753Z,2.40
2018-01-20T01:12:05.801Z,2.50
2018-01-20T01:14:35.323Z,2.50
2018-01-20T01:17:03.386Z,2.50
2018-01-20T01:19:31.977Z,2.50
2018-01-20T01:22:01.944Z,2.50
2018-01-20T01:24:29.993Z,2.50
2018-01-20T01:26:58.054Z,2.40
2018-01-20T01:29:26.190Z,2.40
2018-01-20T01:31:54.258Z,2.40
2018-01-20T01:34:22.306Z,2.40
2018-01-20T01:36:50.404Z,2.50
2018-01-20T01:39:18.463Z,2.60
2018-01-20T01:41:46.514Z,2.50
2018-01-20T01:44:14.561Z,2.50
2018-01-20T01:46:43.391Z,2.50
2018-01-20T01:49:11.442Z,2.50
2018-01-20T01:51:40.573Z,2.50
2018-01-20T01:54:09.499Z,2.40
2018-01-20T01:56:37.671Z,2.40
2018-01-20T01:59:05.717Z,2.50
2018-01-20T02:01:33.777Z,2.50
2018-01-20T02:04:03.242Z,2.40
2018-01-20T02:06:33.918Z,2.40
2018-01-20T02:09:02.446Z,2.40
2018-01-20T02:11:30.730Z,2.40
2018-01-20T02:13:59.418Z,2.30
2018-01-20T02:16:27.494Z,2.30
2018-01-20T02:18:55.538Z,2.30
2018-01-20T02:21:23.598Z,2.30
2018-01-20T02:23:52.409Z,2.30
2018-01-20T02:26:20.476Z,2.30
2018-01-20T02:28:50.019Z,2.30
2018-01-20T02:31:18.069Z,2.20
2018-01-20T02:33:46.126Z,2.40
2018-01-20T02:36:14.974Z,2.30
2018-01-20T02:38:43.040Z,2.20
2018-01-20T02:41:11.869Z,2.20
2018-01-20T02:43:40.017Z,2.30
2018-01-20T02:46:08.799Z,2.20
2018-01-20T02:48:36.885Z,2.20
2018-01-20T02:51:04.973Z,2.30
2018-01-20T02:53:33.031Z,2.30
2018-01-20T02:56:01.084Z,2.30
2018-01-20T02:58:29.139Z,2.30
2018-01-20T03:00:57.985Z,2.30
2018-01-20T03:03:26.042Z,2.20
2018-01-20T03:05:54.105Z,2.10
2018-01-20T03:08:22.150Z,2.10
2018-01-20T03:10:50.210Z,2.20
2018-01-20T03:13:18.274Z,2.10
2018-01-20T03:15:46.331Z,2.10
2018-01-20T03:18:14.390Z,2.20
2018-01-20T03:20:42.451Z,2.20
2018-01-20T03:23:11.270Z,2.20
2018-01-20T03:25:39.345Z,2.20
2018-01-20T03:28:07.433Z,2.10
2018-01-20T03:30:35.518Z,2.10
2018-01-20T03:33:05.350Z,2.20
2018-01-20T03:35:33.537Z,2.10
2018-01-20T03:38:01.690Z,2.20
2018-01-20T03:40:29.746Z,2.10
2018-01-20T03:42:57.838Z,2.10
2018-01-20T03:45:25.897Z,2.20
2018-01-20T03:47:53.947Z,2.20
2018-01-20T03:50:21.994Z,2.20
2018-01-20T03:52:50.050Z,2.10
2018-01-20T03:55:18.113Z,2.00
2018-01-20T03:57:46.201Z,2.10
2018-01-20T04:00:14.269Z,2.10
2018-01-20T04:02:42.350Z,2.00
2018-01-20T04:05:10.422Z,2.10
2018-01-20T04:07:38.469Z,2.20
2018-01-20T04:10:06.517Z,2.20
2018-01-20T04:12:35.346Z,2.10
2018-01-20T04:15:04.045Z,2.30
2018-01-20T04:17:32.138Z,2.10
2018-01-20T04:20:00.189Z,2.00
2018-01-20T04:22:28.256Z,2.10
2018-01-20T04:24:56.297Z,2.00
2018-01-20T04:27:25.122Z,1.90
2018-01-20T04:29:53.232Z,2.00
2018-01-20T04:32:21.306Z,2.10
2018-01-20T04:34:49.459Z,2.00
2018-01-20T04:37:17.514Z,1.90
2018-01-20T04:39:46.359Z,1.90
2018-01-20T04:42:14.436Z,1.90
2018-01-20T04:44:42.481Z,1.80
2018-01-20T04:47:10.555Z,1.90
2018-01-20T04:49:38.598Z,1.80
2018-01-20T04:52:07.418Z,1.90
2018-01-20T04:54:36.450Z,1.80
2018-01-20T04:57:04.539Z,1.70
2018-01-20T04:59:32.602Z,1.70
2018-01-20T05:02:00.674Z,1.80
2018-01-20T05:04:28.714Z,1.70
2018-01-20T05:06:56.995Z,1.80
2018-01-20T05:09:25.046Z,1.70
2018-01-20T05:11:53.192Z,1.60
2018-01-20T05:14:21.234Z,1.70
2018-01-20T05:16:49.353Z,1.60
2018-01-20T05:19:17.429Z,1.80
2018-01-20T05:21:45.487Z,1.90
2018-01-20T05:24:13.542Z,1.70
2018-01-20T05:26:41.594Z,1.90
2018-01-20T05:29:10.447Z,1.90
2018-01-20T05:31:38.523Z,2.00
2018-01-20T05:34:06.906Z,1.90
2018-01-20T05:36:34.984Z,1.90
2018-01-20T05:39:03.035Z,1.90
2018-01-20T05:41:31.098Z,2.00
2018-01-20T05:43:59.219Z,2.00
2018-01-20T05:46:27.390Z,1.90
2018-01-20T05:48:55.481Z,1.80
2018-01-20T05:51:23.646Z,1.90
2018-01-20T05:53:51.726Z,2.00
2018-01-20T05:56:19.781Z,2.00
2018-01-20T05:58:47.830Z,2.00
2018-01-20T06:01:16.918Z,2.00
2018-01-20T06:03:44.926Z,2.00
2018-01-20T06:06:12.985Z,2.10
2018-01-20T06:08:41.036Z,2.00
2018-01-20T06:11:09.853Z,2.10
2018-01-20T06:13:37.906Z,2.10
2018-01-20T06:16:07.848Z,2.10
2018-01-20T06:18:35.895Z,2.10
2018-01-20T06:21:04.752Z,2.20
2018-01-20T06:23:32.817Z,2.20
2018-01-20T06:26:00.865Z,2.10
2018-01-20T06:28:28.927Z,2.20
2018-01-20T06:30:57.776Z,2.30
2018-01-20T06:33:25.919Z,2.10
2018-01-20T06:35:54.026Z,2.20
2018-01-20T06:38:22.105Z,2.30
2018-01-20T06:40:50.164Z,2.30
2018-01-20T06:43:18.222Z,2.30
2018-01-20T06:45:46.333Z,2.20
2018-01-20T06:48:14.405Z,2.20
2018-01-20T06:50:42.454Z,2.10
2018-01-20T06:53:10.558Z,2.20
2018-01-20T06:55:38.606Z,2.10
2018-01-20T06:58:06.676Z,1.90
2018-01-20T07:00:34.722Z,2.00
2018-01-20T07:03:03.550Z,2.00
2018-01-20T07:05:31.653Z,2.00
2018-01-20T07:07:59.738Z,2.00
2018-01-20T07:10:27.785Z,2.00
2018-01-20T07:12:55.855Z,2.10
2018-01-20T07:15:24.378Z,2.10
2018-01-20T07:17:52.442Z,2.20
2018-01-20T07:20:20.505Z,2.10
2018-01-20T07:22:48.569Z,2.10
2018-01-20T07:25:16.613Z,2.20
2018-01-20T07:27:45.474Z,2.30
2018-01-20T07:30:13.543Z,2.00
2018-01-20T07:32:41.621Z,1.80
2018-01-20T07:35:09.671Z,1.70
2018-01-20T07:37:39.613Z,1.70
2018-01-20T07:40:11.702Z,1.60
2018-01-20T07:42:39.789Z,1.50
2018-01-20T07:45:08.966Z,1.30
2018-01-20T07:47:37.034Z,1.30
2018-01-20T07:50:05.110Z,1.20
2018-01-20T07:52:33.178Z,1.30
2018-01-20T07:55:01.798Z,1.30
2018-01-20T07:57:29.850Z,1.20
2018-01-20T07:59:57.909Z,1.30
2018-01-20T08:02:26.026Z,1.30
2018-01-20T08:04:54.075Z,1.50
2018-01-20T08:07:22.133Z,1.40
2018-01-20T08:09:50.508Z,1.50
2018-01-20T08:12:18.588Z,1.70
2018-01-20T08:14:46.638Z,1.60
2018-01-20T08:17:15.906Z,1.70
2018-01-20T08:19:43.962Z,1.70
2018-01-20T08:22:12.014Z,1.70
2018-01-20T08:24:40.062Z,1.90
2018-01-20T08:27:10.050Z,1.90
2018-01-20T08:29:38.096Z,1.90
2018-01-20T08:32:06.193Z,2.00
2018-01-20T08:34:34.249Z,2.10
2018-01-20T08:37:02.363Z,2.10
2018-01-20T08:39:30.413Z,2.30
2018-01-20T08:41:59.173Z,2.30
2018-01-20T08:44:27.998Z,2.40
2018-01-20T08:46:56.086Z,2.20
2018-01-20T08:49:24.150Z,2.00
2018-01-20T08:51:52.233Z,1.80
2018-01-20T08:54:20.313Z,1.70
2018-01-20T08:56:48.361Z,1.50
2018-01-20T08:59:16.415Z,1.40
2018-01-20T09:01:45.262Z,1.60
2018-01-20T09:04:13.331Z,1.60
2018-01-20T09:06:41.424Z,1.70
2018-01-20T09:09:10.106Z,1.70
2018-01-20T09:11:38.156Z,1.60
2018-01-20T09:14:06.274Z,1.70
2018-01-20T09:16:34.338Z,1.50
2018-01-20T09:19:02.398Z,1.70
2018-01-20T09:21:30.490Z,1.70
2018-01-20T09:23:58.680Z,1.80
2018-01-20T09:26:26.739Z,1.90
2018-01-20T09:28:54.821Z,2.00
2018-01-20T09:31:22.881Z,2.10
2018-01-20T09:33:50.969Z,2.10
2018-01-20T09:36:19.153Z,2.20
2018-01-20T09:38:47.225Z,2.10
2018-01-20T09:41:15.286Z,2.30
2018-01-20T09:43:43.343Z,2.40
2018-01-20T09:46:11.391Z,2.40
2018-01-20T09:48:41.330Z,2.50
2018-01-20T09:51:11.265Z,2.60
2018-01-20T09:53:39.334Z,2.70
2018-01-20T09:56:07.442Z,2.80
2018-01-20T09:58:35.507Z,2.90
2018-01-20T10:01:03.577Z,3.60
2018-01-20T10:03:31.637Z,4.20
2018-01-20T10:05:59.757Z,4.30
2018-01-20T10:08:27.824Z,3.40
2018-01-20T10:10:55.905Z,3.50
2018-01-20T10:13:23.981Z,3.60
2018-01-20T10:15:52.041Z,3.60
2018-01-20T10:18:20.086Z,3.50
2018-01-20T10:20:48.145Z,3.40
2018-01-20T10:23:16.963Z,3.60
2018-01-20T10:25:45.026Z,3.60
2018-01-20T10:28:13.873Z,3.60
2018-01-20T10:30:41.933Z,3.60
2018-01-20T10:33:11.858Z,3.70
2018-01-20T10:35:40.562Z,3.60
2018-01-20T10:38:09.948Z,3.80
2018-01-20T10:40:38.025Z,3.80
2018-01-20T10:43:06.113Z,3.60
2018-01-20T10:45:34.162Z,3.40
2018-01-20T10:48:02.214Z,3.00
2018-01-20T10:50:31.045Z,2.60
2018-01-20T10:52:59.093Z,2.50
2018-01-20T10:55:27.151Z,2.30
2018-01-20T10:57:55.977Z,2.20
2018-01-20T11:00:24.017Z,2.30
2018-01-20T11:02:52.845Z,2.20
2018-01-20T11:05:20.900Z,2.30
2018-01-20T11:07:48.949Z,2.50
2018-01-20T11:10:17.586Z,2.40
2018-01-20T11:12:45.618Z,2.60
2018-01-20T11:15:13.762Z,2.90
2018-01-20T11:17:42.262Z,3.00
2018-01-20T11:20:11.320Z,2.90
2018-01-20T11:22:39.393Z,2.70
2018-01-20T11:25:07.530Z,2.90
2018-01-20T11:27:35.674Z,3.00
2018-01-20T11:30:03.741Z,3.10
2018-01-20T11:32:31.800Z,3.00
2018-01-20T11:34:59.849Z,2.90
2018-01-20T11:37:28.675Z,3.20
2018-01-20T11:39:56.774Z,3.70
2018-01-20T11:42:24.862Z,3.60
2018-01-20T11:44:52.925Z,3.70
2018-01-20T11:47:20.994Z,3.70
2018-01-20T11:49:49.174Z,3.70
2018-01-20T11:52:17.241Z,3.60
2018-01-20T11:54:46.840Z,3.80
2018-01-20T11:57:16.586Z,3.80
2018-01-20T11:59:44.642Z,3.80
2018-01-20T12:02:12.870Z,3.90
2018-01-20T12:04:41.689Z,3.90
2018-01-20T12:07:09.805Z,4.20
2018-01-20T12:09:37.890Z,4.20
2018-01-20T12:12:05.965Z,4.20
2018-01-20T12:14:34.050Z,4.00
2018-01-20T12:17:02.395Z,4.10
2018-01-20T12:19:30.598Z,4.20
2018-01-20T12:21:58.872Z,4.10
2018-01-20T12:24:27.032Z,4.20
2018-01-20T12:26:55.106Z,4.10
2018-01-20T12:29:23.158Z,3.90
2018-01-20T12:31:51.982Z,4.00
2018-01-20T12:34:20.378Z,4.20
2018-01-20T12:36:48.457Z,4.50
2018-01-20T12:39:17.528Z,4.60
2018-01-20T12:41:47.467Z,4.50
2018-01-20T12:44:15.513Z,4.60
2018-01-20T12:46:44.337Z,4.60
2018-01-20T12:49:12.386Z,4.50
2018-01-20T12:55:57.484Z,4.50
2018-01-20T12:58:25.542Z,4.60
2018-01-20T13:00:53.633Z,4.50
2018-01-20T13:03:21.685Z,4.70
2018-01-20T13:05:49.744Z,4.90
2018-01-20T13:08:17.809Z,4.50
2018-01-20T13:10:45.853Z,4.30
2018-01-20T13:13:14.775Z,4.20
2018-01-20T13:15:43.578Z,4.50
2018-01-20T13:18:13.367Z,4.50
2018-01-20T13:20:42.218Z,4.50
2018-01-20T13:23:10.257Z,4.50
2018-01-20T13:25:38.477Z,4.70
2018-01-20T13:28:07.265Z,4.80
2018-01-20T13:30:35.314Z,4.80
2018-01-20T13:33:03.424Z,4.70
2018-01-20T13:35:32.207Z,4.50
2018-01-20T13:38:00.270Z,4.50
2018-01-20T13:40:28.321Z,4.60
2018-01-20T13:42:56.382Z,4.40
2018-01-20T13:45:25.197Z,4.50
2018-01-20T13:47:53.258Z,4.70
2018-01-20T13:50:22.959Z,4.50
2018-01-20T13:52:51.111Z,4.90
2018-01-20T13:55:19.169Z,5.00
2018-01-20T13:57:48.954Z,4.80
2018-01-20T14:00:18.887Z,4.90
2018-01-20T14:02:48.066Z,4.90
2018-01-20T14:05:16.115Z,4.90
2018-01-20T14:07:44.945Z,4.90
2018-01-20T14:10:12.990Z,4.90
2018-01-20T14:12:41.819Z,4.80
2018-01-20T14:15:09.922Z,4.90
2018-01-20T14:17:39.426Z,4.80
2018-01-20T14:20:07.478Z,4.70
2018-01-20T14:22:35.537Z,4.90
2018-01-20T14:25:03.589Z,5.00
2018-01-20T14:27:31.646Z,5.30
2018-01-20T14:29:59.810Z,5.40
2018-01-20T14:32:27.866Z,5.40
2018-01-20T14:34:56.171Z,5.40
2018-01-20T14:37:24.244Z,5.40
2018-01-20T14:39:52.313Z,5.30
2018-01-20T14:42:20.400Z,5.30
2018-01-20T14:44:49.660Z,5.10
2018-01-20T14:47:18.906Z,5.10
2018-01-20T14:49:46.955Z,5.20
2018-01-20T14:52:15.022Z,5.20
2018-01-20T14:54:43.132Z,5.10
2018-01-20T14:57:11.190Z,5.00
2018-01-20T14:59:39.237Z,4.70
2018-01-20T15:02:07.306Z,4.80
2018-01-20T15:04:36.122Z,4.80
2018-01-20T15:07:04.185Z,4.80
2018-01-20T15:09:32.302Z,4.80
2018-01-20T15:12:00.378Z,4.70
2018-01-20T15:14:28.662Z,4.70
2018-01-20T15:16:57.174Z,4.70
2018-01-20T15:19:25.326Z,4.50
2018-01-20T15:21:53.430Z,4.60
2018-01-20T15:24:21.477Z,4.30
2018-01-20T15:26:49.755Z,4.30
2018-01-20T15:29:17.841Z,4.30
2018-01-20T15:31:46.425Z,4.50
2018-01-20T15:34:14.482Z,4.40
2018-01-20T15:36:42.540Z,4.30
2018-01-20T15:39:11.419Z,4.20
2018-01-20T15:41:40.235Z,4.10
2018-01-20T15:44:08.345Z,4.10
2018-01-20T15:46:36.418Z,4.20
2018-01-20T15:49:04.685Z,4.10
2018-01-20T15:51:33.561Z,4.00
2018-01-20T15:54:01.607Z,4.10
2018-01-20T15:56:30.468Z,4.30
2018-01-20T15:58:58.602Z,4.20
2018-01-20T16:01:26.658Z,4.00
2018-01-20T16:03:54.789Z,4.30
2018-01-20T16:06:22.869Z,4.20
2018-01-20T16:08:51.459Z,4.20
2018-01-20T16:11:21.170Z,4.20
2018-01-20T16:13:50.353Z,4.10
2018-01-20T16:16:18.448Z,3.90
2018-01-20T16:18:46.498Z,3.90
2018-01-20T16:21:14.606Z,3.90
2018-01-20T16:23:42.719Z,4.00
2018-01-20T16:26:11.612Z,4.00
2018-01-20T16:28:39.662Z,4.00
2018-01-20T16:31:07.756Z,4.20
2018-01-20T16:33:35.801Z,4.60
2018-01-20T16:36:03.857Z,5.20
2018-01-20T16:38:32.774Z,5.20
2018-01-20T16:41:01.031Z,4.90
2018-01-20T16:43:29.138Z,4.50
2018-01-20T16:45:57.190Z,4.20
2018-01-20T16:48:25.359Z,4.00
2018-01-20T16:50:53.466Z,4.10
2018-01-20T16:53:21.565Z,4.00
2018-01-20T16:55:51.486Z,3.90
2018-01-20T16:58:19.641Z,3.80
2018-01-20T17:00:47.746Z,3.70
2018-01-20T17:03:15.886Z,3.60
2018-01-20T17:05:43.989Z,3.50
2018-01-20T17:08:12.043Z,3.50
2018-01-20T17:10:40.402Z,3.60
2018-01-20T17:13:08.982Z,3.60
2018-01-20T17:15:37.202Z,3.70
2018-01-20T17:18:05.310Z,3.40
2018-01-20T17:20:34.402Z,3.20
2018-01-20T17:23:03.218Z,3.20
2018-01-20T17:25:32.098Z,4.20
2018-01-20T17:28:00.241Z,5.30
2018-01-20T17:30:28.311Z,5.20
2018-01-20T17:32:56.393Z,5.30
2018-01-20T17:35:24.574Z,5.00
2018-01-20T17:37:52.750Z,4.80
2018-01-20T17:40:21.928Z,4.20
2018-01-20T17:42:50.033Z,3.60
2018-01-20T17:45:18.471Z,3.10
2018-01-20T17:47:46.551Z,2.70
2018-01-20T17:50:14.660Z,2.50
2018-01-20T17:52:42.698Z,2.20
2018-01-20T17:55:10.758Z,2.10
2018-01-20T17:57:39.649Z,2.10
2018-01-20T18:00:07.717Z,2.10
2018-01-20T18:02:36.538Z,2.10
2018-01-20T18:05:04.650Z,2.10
2018-01-20T18:07:32.777Z,2.10
2018-01-20T18:10:01.657Z,2.10
2018-01-20T18:12:30.720Z,2.00
2018-01-20T18:14:58.957Z,2.00
2018-01-20T18:17:29.213Z,2.10
2018-01-20T18:19:57.316Z,2.10
2018-01-20T18:22:25.364Z,2.00
2018-01-20T18:24:53.461Z,2.10
2018-01-20T18:27:22.698Z,2.10
2018-01-20T18:29:51.245Z,2.20
2018-01-20T18:32:19.369Z,2.10
2018-01-20T18:34:48.279Z,2.10
2018-01-20T18:37:17.122Z,2.00
2018-01-20T18:39:45.177Z,2.00
2018-01-20T18:42:13.280Z,2.00
2018-01-20T18:44:41.346Z,2.10
2018-01-20T18:47:09.405Z,2.20
2018-01-20T18:49:37.466Z,2.00
2018-01-20T18:52:05.574Z,2.00
2018-01-20T18:54:33.633Z,2.00
2018-01-20T18:57:02.569Z,2.00
2018-01-20T18:59:31.788Z,2.00
2018-01-20T19:01:59.925Z,2.00
2018-01-20T19:04:27.985Z,2.00
2018-01-20T19:06:56.097Z,1.90
2018-01-20T19:09:24.139Z,1.90
2018-01-20T19:11:52.222Z,1.90
2018-01-20T19:14:20.310Z,2.00
2018-01-20T19:16:48.373Z,2.00
2018-01-20T19:19:16.485Z,2.10
2018-01-20T19:21:44.586Z,2.10
2018-01-20T19:24:13.400Z,2.20
2018-01-20T19:26:41.477Z,2.10
2018-01-20T19:29:09.625Z,2.10
2018-01-20T19:31:37.757Z,2.10
2018-01-20T19:34:05.871Z,2.00
2018-01-20T19:36:34.794Z,2.20
2018-01-20T19:39:02.973Z,2.20
2018-01-20T19:41:31.845Z,2.20
2018-01-20T19:43:59.986Z,2.00
2018-01-20T19:46:28.172Z,1.90
2018-01-20T19:48:56.278Z,2.00
2018-01-20T19:51:24.477Z,2.00
2018-01-20T19:53:52.594Z,2.10
2018-01-20T19:56:20.637Z,2.00
2018-01-20T19:58:48.797Z,1.90
2018-01-20T20:01:17.598Z,2.00
2018-01-20T20:03:45.726Z,2.00
2018-01-20T20:06:13.844Z,1.90
2018-01-20T20:08:42.709Z,2.00
2018-01-20T20:11:10.795Z,1.80
2018-01-20T20:13:38.950Z,2.10
2018-01-20T20:16:07.078Z,4.60
2018-01-20T20:18:35.906Z,5.20
2018-01-20T20:21:04.085Z,5.00
2018-01-20T20:23:32.184Z,5.00
2018-01-20T20:26:00.301Z,5.50
2018-01-20T20:28:29.177Z,4.10
2018-01-20T20:30:57.317Z,3.50
2018-01-20T20:33:25.395Z,3.00
2018-01-20T20:35:53.569Z,2.60
2018-01-20T20:38:21.692Z,2.40
2018-01-20T20:40:51.301Z,2.30
2018-01-20T20:43:19.493Z,2.30
2018-01-20T20:45:49.130Z,2.40
2018-01-20T20:48:17.221Z,2.40
2018-01-20T20:50:45.274Z,2.40
2018-01-20T20:53:13.377Z,2.30
2018-01-20T20:55:41.475Z,2.00
2018-01-20T20:58:09.560Z,2.00
2018-01-20T21:00:38.449Z,2.20
2018-01-20T21:03:06.554Z,2.00
2018-01-20T21:05:35.437Z,2.10
2018-01-20T21:08:03.478Z,2.10
2018-01-20T21:10:31.562Z,2.00
2018-01-20T21:12:59.661Z,1.90
2018-01-20T21:15:27.860Z,1.90
2018-01-20T21:17:58.456Z,1.90
2018-01-20T21:20:26.490Z,1.80
2018-01-20T21:22:54.645Z,1.70
2018-01-20T21:25:23.517Z,2.00
2018-01-20T21:27:51.707Z,2.00
2018-01-20T21:30:19.805Z,2.00
2018-01-20T21:32:48.649Z,2.00
2018-01-20T21:35:16.701Z,2.10
2018-01-20T21:37:44.784Z,2.10
2018-01-20T21:40:12.876Z,2.20
2018-01-20T21:42:40.960Z,2.10
2018-01-20T21:45:09.077Z,2.00
2018-01-20T21:47:37.929Z,2.00
2018-01-20T21:50:06.022Z,2.20
2018-01-20T21:52:34.122Z,2.00
2018-01-20T21:55:03.031Z,2.10
2018-01-20T21:57:31.141Z,2.30
2018-01-20T21:59:59.225Z,2.20
2018-01-20T22:02:27.349Z,2.20
2018-01-20T22:04:57.725Z,2.20
2018-01-20T22:07:26.932Z,2.30
2018-01-20T22:09:55.021Z,2.40
2018-01-20T22:12:23.112Z,2.50
2018-01-20T22:14:51.316Z,2.40
2018-01-20T22:17:20.205Z,2.50
2018-01-20T22:19:49.057Z,2.50
2018-01-20T22:22:17.117Z,2.50
2018-01-20T22:24:45.173Z,2.50
2018-01-20T22:27:13.276Z,2.60
2018-01-20T22:29:41.375Z,2.50
2018-01-20T22:32:09.531Z,2.60
2018-01-20T22:34:37.760Z,2.70
2018-01-20T22:37:06.563Z,2.60
2018-01-20T22:39:34.731Z,2.60
2018-01-20T22:42:03.563Z,2.70
2018-01-20T22:44:32.078Z,2.60
2018-01-20T22:47:00.233Z,2.60
2018-01-20T22:49:28.333Z,2.60
2018-01-20T22:51:56.381Z,2.70
2018-01-20T22:54:24.476Z,2.70
2018-01-20T22:56:52.536Z,2.70
2018-01-20T22:59:20.621Z,2.60
2018-01-20T23:01:48.736Z,2.60
2018-01-20T23:04:18.277Z,2.60
2018-01-20T23:06:46.386Z,2.60
2018-01-20T23:09:14.503Z,2.60
2018-01-20T23:11:42.554Z,2.60
2018-01-20T23:14:10.651Z,2.60
2018-01-20T23:16:38.730Z,2.60
2018-01-20T23:19:06.828Z,2.60
2018-01-20T23:21:35.643Z,2.60
2018-01-20T23:24:03.737Z,2.60
2018-01-20T23:26:31.912Z,2.60
2018-01-20T23:28:59.962Z,2.60
2018-01-20T23:31:28.586Z,2.60
2018-01-20T23:33:56.645Z,2.50
2018-01-20T23:36:27.036Z,2.50
2018-01-20T23:38:55.854Z,2.50
2018-01-20T23:41:23.893Z,2.50
2018-01-20T23:43:52.804Z,2.50
2018-01-20T23:46:20.813Z,2.60
2018-01-20T23:48:48.874Z,2.50
2018-01-20T23:51:17.030Z,2.60
2018-01-20T23:53:45.841Z,2.50
2018-01-20T23:56:13.894Z,2.50
2018-01-20T23:58:42.745Z,2.50
